This is the latest recevied weather packets stored in our database for station/object OE3AOG-10. If no packets are shown the sender has not sent any weather packets the latest 10 day(s).
| Time | Temp. | Humidity | Pressure | Rain* | Wind** | Luminosity | Snow |
|---|---|---|---|---|---|---|---|
| 1777557258 | 15.56° C | 23% | 1029.2 hPa | - | - | - | - |
| 1777553658 | 17.22° C | 24% | 1029.6 hPa | - | - | - | - |
| 1777550057 | 17.78° C | 26% | 1030.1 hPa | - | - | - | - |
| 1777546457 | 15.56° C | 27% | 1030.5 hPa | - | - | - | - |
| 1777542857 | 13.33° C | 30% | 1030.9 hPa | - | - | - | - |
| 1777539258 | 12.22° C | 31% | 1031.5 hPa | - | - | - | - |
| 1777535658 | 10° C | 34% | 1031.7 hPa | - | - | - | - |
| 1777532057 | 7.78° C | 37% | 1031.8 hPa | - | - | - | - |
| 1777528457 | 6.11° C | 40% | 1031.7 hPa | - | - | - | - |
| 1777524857 | 3.89° C | 42% | 1031.6 hPa | - | - | - | - |
| 1777521257 | 2.22° C | 41% | 1031.2 hPa | - | - | - | - |
| 1777517656 | 2.22° C | 40% | 1030.8 hPa | - | - | - | - |
| 1777514056 | 2.78° C | 38% | 1030.6 hPa | - | - | - | - |
| 1777510456 | 3.33° C | 36% | 1030.3 hPa | - | - | - | - |
| 1777506856 | 3.89° C | 34% | 1030.4 hPa | - | - | - | - |
| 1777503256 | 5° C | 32% | 1030.4 hPa | - | - | - | - |
| 1777499655 | 6.11° C | 29% | 1029.8 hPa | - | - | - | - |
| 1777496058 | 7.22° C | 27% | 1029.3 hPa | - | - | - | - |
| 1777492457 | 8.89° C | 27% | 1028.2 hPa | - | - | - | - |
| 1777488857 | 10° C | 28% | 1027 hPa | - | - | - | - |
| 1777485256 | 11.11° C | 29% | 1025.2 hPa | - | - | - | - |
| 1777481656 | 12.78° C | 27% | 1024.1 hPa | - | - | - | - |
| 1777478056 | 15.56° C | 23% | 1023.3 hPa | - | - | - | - |
| 1777474455 | 17.22° C | 22% | 1023.4 hPa | - | - | - | - |
| 1777470855 | 18.33° C | 21% | 1023.4 hPa | - | - | - | - |
* Rain since midnight (hover to see other rain measurements)
** Current wind speed in m/s (hover to see current wind gust speed)